Time;durP1;ratioP1;P1;durP2;ratioP2;P2;SDS_P1;SDS_P2;PMS_P1;PMS_P2;Temp;Humidity;BMP_temperature;BMP_pressure;BME280_temperature;BME280_humidity;BME280_pressure;Samples;Min_cycle;Max_cycle;Signal;HPM_P1;HPM_P2
2021/09/05 00:01:04;;;;;;;1.35;1.00;;;15.70;79.40;;;;;;5133953;27;20019;-76
2021/09/05 00:03:30;;;;;;;0.60;0.60;;;15.60;78.70;;;;;;5134130;27;20031;-76
2021/09/05 00:05:55;;;;;;;1.23;0.80;;;15.60;78.80;;;;;;5134335;27;20078;-76
2021/09/05 00:08:21;;;;;;;1.10;1.00;;;15.60;78.80;;;;;;5134293;27;20085;-76
2021/09/05 00:10:46;;;;;;;0.73;0.70;;;15.60;78.80;;;;;;5115769;28;20047;-76
2021/09/05 00:13:12;;;;;;;1.23;0.90;;;15.60;78.90;;;;;;5134093;28;20030;-76
2021/09/05 00:15:37;;;;;;;1.25;1.15;;;15.50;78.80;;;;;;5136463;27;20015;-75
2021/09/05 00:18:04;;;;;;;1.60;1.00;;;15.50;78.90;;;;;;5122646;27;20019;-75
2021/09/05 00:20:29;;;;;;;0.80;0.77;;;15.50;78.90;;;;;;5122604;27;20047;-76
2021/09/05 00:22:55;;;;;;;0.80;0.80;;;15.50;78.90;;;;;;5140963;27;20035;-76
2021/09/05 00:25:21;;;;;;;0.98;0.88;;;15.50;78.90;;;;;;5122610;27;20118;-76
2021/09/05 00:27:46;;;;;;;0.85;0.82;;;15.50;78.90;;;;;;5141241;27;20779;-77
2021/09/05 00:30:12;;;;;;;0.90;0.90;;;15.50;79.00;;;;;;5140343;27;20112;-75
2021/09/05 00:32:38;;;;;;;0.90;0.80;;;15.50;79.00;;;;;;5141025;27;20464;-75
2021/09/05 00:35:04;;;;;;;0.75;0.75;;;15.40;78.90;;;;;;5141034;27;20455;-76
2021/09/05 00:37:30;;;;;;;1.20;1.10;;;15.40;79.00;;;;;;5141011;27;20027;-77
2021/09/05 00:39:55;;;;;;;2.53;1.17;;;15.40;79.10;;;;;;5140908;27;20019;-75
2021/09/05 00:42:23;;;;;;;2.00;1.15;;;15.40;79.10;;;;;;5140853;27;20387;-74
2021/09/05 00:44:48;;;;;;;1.20;1.00;;;15.30;79.10;;;;;;5140241;27;20023;-76
2021/09/05 00:47:14;;;;;;;0.93;0.90;;;15.30;79.10;;;;;;5140717;27;20030;-76
2021/09/05 00:49:39;;;;;;;2.30;1.33;;;15.30;79.10;;;;;;5140867;27;20482;-76
2021/09/05 00:52:06;;;;;;;1.98;1.75;;;15.30;79.30;;;;;;5140784;27;20019;-76
2021/09/05 00:54:32;;;;;;;1.15;1.05;;;15.30;79.20;;;;;;5122157;27;20098;-76
2021/09/05 00:56:57;;;;;;;1.35;1.02;;;15.20;79.20;;;;;;5140694;27;20019;-77
2021/09/05 00:59:23;;;;;;;1.65;1.20;;;15.20;79.20;;;;;;5140219;27;20110;-76
2021/09/05 01:01:49;;;;;;;2.25;1.20;;;15.20;79.30;;;;;;5140612;27;20051;-76
2021/09/05 01:04:15;;;;;;;1.38;1.02;;;15.20;79.30;;;;;;5140596;27;20468;-76
2021/09/05 01:06:41;;;;;;;1.20;1.10;;;15.10;79.30;;;;;;5122130;27;20025;-76
2021/09/05 01:09:07;;;;;;;1.05;0.93;;;15.20;79.30;;;;;;5140712;27;20030;-76
2021/09/05 01:11:37;;;;;;;1.00;1.00;;;15.20;79.40;;;;;;5140648;27;20468;-76
2021/09/05 01:14:04;;;;;;;1.45;0.93;;;15.10;79.30;;;;;;5140065;27;20031;-75
2021/09/05 01:16:32;;;;;;;2.00;1.30;;;15.10;79.40;;;;;;5140636;27;20027;-76
2021/09/05 01:19:14;;;;;;;2.60;1.17;;;15.10;79.50;;;;;;5121612;27;20484;-76
2021/09/05 01:21:41;;;;;;;1.23;0.90;;;15.10;79.40;;;;;;5122128;27;20062;-76
2021/09/05 01:24:07;;;;;;;1.13;1.00;;;15.00;79.50;;;;;;5140477;27;20090;-76
2021/09/05 01:26:39;;;;;;;0.90;0.90;;;15.00;79.50;;;;;;5139471;27;20387;-77
2021/09/05 01:29:06;;;;;;;1.92;1.23;;;15.00;79.50;;;;;;5136611;27;20110;-77
2021/09/05 01:31:38;;;;;;;1.95;0.82;;;15.00;79.50;;;;;;5137134;27;20490;-77
2021/09/05 01:34:03;;;;;;;1.23;0.95;;;14.90;79.50;;;;;;5137031;27;20031;-75
2021/09/05 01:36:29;;;;;;;1.05;0.90;;;14.90;79.60;;;;;;5137032;27;20019;-75
2021/09/05 01:38:54;;;;;;;1.17;0.80;;;14.90;79.60;;;;;;5118443;27;20030;-75
2021/09/05 01:41:20;;;;;;;1.35;1.25;;;14.90;79.60;;;;;;5118505;27;20073;-75
2021/09/05 01:43:45;;;;;;;1.50;1.10;;;14.90;79.60;;;;;;5136310;27;20031;-76
2021/09/05 01:46:11;;;;;;;1.15;1.02;;;14.90;79.60;;;;;;5136791;27;20015;-75
2021/09/05 01:48:37;;;;;;;1.85;1.20;;;14.90;79.60;;;;;;5118319;27;20046;-76
2021/09/05 01:51:02;;;;;;;1.42;1.33;;;14.80;79.60;;;;;;5136765;27;20022;-75
2021/09/05 01:53:28;;;;;;;2.10;1.20;;;14.80;79.60;;;;;;5136769;27;20056;-75
2021/09/05 01:55:53;;;;;;;3.42;1.13;;;14.80;79.60;;;;;;5136215;27;20023;-77
2021/09/05 01:58:19;;;;;;;0.75;0.70;;;14.80;79.60;;;;;;5136574;27;20024;-74
2021/09/05 02:00:44;;;;;;;2.42;1.25;;;14.80;79.50;;;;;;5136690;27;20019;-74
2021/09/05 02:03:10;;;;;;;1.13;1.02;;;14.80;79.50;;;;;;5118036;27;20027;-76
2021/09/05 02:05:35;;;;;;;1.02;0.90;;;14.80;79.50;;;;;;5136445;27;20490;-76
2021/09/05 02:08:01;;;;;;;1.02;0.90;;;14.80;79.60;;;;;;5136513;27;20051;-75
2021/09/05 02:10:27;;;;;;;1.23;0.90;;;14.80;79.60;;;;;;5136102;27;20090;-75
2021/09/05 02:12:53;;;;;;;1.27;1.08;;;14.80;79.70;;;;;;5136358;27;20027;-76
2021/09/05 02:15:18;;;;;;;2.63;1.38;;;14.70;79.60;;;;;;5136499;27;20370;-75
2021/09/05 02:17:44;;;;;;;1.25;1.15;;;14.70;79.70;;;;;;5136403;27;20592;-75
2021/09/05 02:20:10;;;;;;;1.50;1.08;;;14.70;79.70;;;;;;5136141;27;20051;-76
2021/09/05 02:22:36;;;;;;;1.50;0.90;;;14.70;79.70;;;;;;5136075;27;20118;-77
2021/09/05 02:25:01;;;;;;;1.77;1.00;;;14.70;79.70;;;;;;5135574;27;20102;-76
2021/09/05 02:27:27;;;;;;;1.38;1.20;;;14.70;79.80;;;;;;5136038;27;20023;-75
2021/09/05 02:29:52;;;;;;;1.00;0.90;;;14.70;79.90;;;;;;5117481;27;20034;-76
2021/09/05 02:32:18;;;;;;;1.75;1.15;;;14.70;79.90;;;;;;5136060;27;20015;-75
2021/09/05 02:34:43;;;;;;;1.00;0.82;;;14.70;79.90;;;;;;5135875;27;20023;-76
2021/09/05 02:37:10;;;;;;;1.55;1.00;;;14.60;79.90;;;;;;5117463;27;20487;-75
2021/09/05 02:39:36;;;;;;;1.00;0.90;;;14.60;79.90;;;;;;5134171;27;20027;-76
2021/09/05 02:42:02;;;;;;;1.65;1.10;;;14.60;79.90;;;;;;5135815;27;20023;-76
2021/09/05 02:44:27;;;;;;;1.13;1.02;;;14.60;80.00;;;;;;5135819;27;20469;-75
2021/09/05 02:46:53;;;;;;;0.80;0.70;;;14.60;80.00;;;;;;5135736;27;20376;-75
2021/09/05 02:49:18;;;;;;;1.58;1.20;;;14.60;80.10;;;;;;5135845;27;20103;-75
2021/09/05 02:51:44;;;;;;;1.67;1.10;;;14.50;80.00;;;;;;5135669;27;20383;-75
2021/09/05 02:54:10;;;;;;;2.03;1.48;;;14.50;80.10;;;;;;5135094;27;20504;-76
2021/09/05 02:56:36;;;;;;;1.70;1.30;;;14.50;80.20;;;;;;5135428;27;20023;-77
2021/09/05 02:59:01;;;;;;;2.42;1.00;;;14.40;80.20;;;;;;5135285;27;20041;-75
2021/09/05 03:01:27;;;;;;;1.05;0.95;;;14.40;80.30;;;;;;5116862;27;20379;-76
2021/09/05 03:03:52;;;;;;;1.55;1.10;;;14.30;80.40;;;;;;5135122;27;20030;-76
2021/09/05 03:06:18;;;;;;;1.67;1.40;;;14.30;80.50;;;;;;5135220;27;20523;-76
2021/09/05 03:08:43;;;;;;;1.98;1.25;;;14.20;80.60;;;;;;5134747;27;20027;-75
2021/09/05 03:11:09;;;;;;;1.23;1.02;;;14.20;80.60;;;;;;5135154;27;20099;-76
2021/09/05 03:13:35;;;;;;;2.28;1.60;;;14.10;80.70;;;;;;5135153;27;20015;-76
2021/09/05 03:16:00;;;;;;;1.50;1.17;;;14.00;80.80;;;;;;5134956;27;20054;-76
2021/09/05 03:18:26;;;;;;;1.40;1.23;;;14.00;80.90;;;;;;5134684;27;20057;-75
2021/09/05 03:20:51;;;;;;;1.05;0.95;;;13.90;80.90;;;;;;5135056;27;20102;-76
2021/09/05 03:23:17;;;;;;;1.73;1.33;;;13.90;81.00;;;;;;5134443;27;20027;-75
2021/09/05 03:25:43;;;;;;;1.38;1.15;;;13.80;81.00;;;;;;5135146;27;20487;-75
2021/09/05 03:28:09;;;;;;;1.95;1.50;;;13.80;81.10;;;;;;5134858;27;20460;-75
2021/09/05 03:30:34;;;;;;;2.10;1.30;;;13.80;81.10;;;;;;5116363;27;20030;-75
2021/09/05 03:33:00;;;;;;;2.10;1.52;;;13.70;81.10;;;;;;5134712;27;20019;-76
2021/09/05 03:35:26;;;;;;;2.03;1.30;;;13.70;81.20;;;;;;5116300;27;20023;-75
2021/09/05 03:37:51;;;;;;;2.92;1.50;;;13.70;81.20;;;;;;5134336;27;20392;-75
2021/09/05 03:40:16;;;;;;;2.90;1.70;;;13.60;81.20;;;;;;5134479;27;20019;-76
2021/09/05 03:42:42;;;;;;;2.28;1.60;;;13.60;81.20;;;;;;5134636;27;20483;-77
2021/09/05 03:45:08;;;;;;;1.58;1.35;;;13.50;81.30;;;;;;5116045;27;20050;-76
2021/09/05 03:47:34;;;;;;;1.80;1.60;;;13.50;81.30;;;;;;5134364;27;20092;-75
2021/09/05 03:49:59;;;;;;;2.22;2.03;;;13.50;81.40;;;;;;5134098;27;20514;-77
2021/09/05 03:52:25;;;;;;;2.17;1.45;;;13.40;81.40;;;;;;5133988;27;20011;-76
2021/09/05 03:54:51;;;;;;;1.33;1.23;;;13.40;81.40;;;;;;5134400;27;20102;-75
2021/09/05 03:57:17;;;;;;;1.30;1.20;;;13.40;81.50;;;;;;5134326;27;20106;-75
2021/09/05 03:59:42;;;;;;;1.25;1.10;;;13.40;81.60;;;;;;5134258;27;20019;-75
2021/09/05 04:02:08;;;;;;;4.10;1.55;;;13.40;81.60;;;;;;5116048;27;20352;-75
2021/09/05 04:04:33;;;;;;;1.65;1.40;;;13.40;81.60;;;;;;5134174;27;20039;-75
2021/09/05 04:07:00;;;;;;;2.03;1.75;;;13.40;81.60;;;;;;5133946;27;20094;-75
2021/09/05 04:12:17;;;;;;;2.30;1.77;;;13.30;81.60;;;;;;5134263;27;20083;-76
2021/09/05 04:14:43;;;;;;;1.63;1.20;;;13.30;81.70;;;;;;5134246;28;20066;-75
2021/09/05 04:17:08;;;;;;;2.08;1.30;;;13.20;81.80;;;;;;5115770;28;20066;-75
2021/09/05 04:19:34;;;;;;;2.40;1.52;;;13.20;81.80;;;;;;5115481;28;20047;-75
2021/09/05 04:22:06;;;;;;;2.22;1.70;;;13.20;81.80;;;;;;5133659;28;20020;-75
2021/09/05 04:24:32;;;;;;;2.15;1.40;;;13.10;81.80;;;;;;5115368;28;20035;-74
2021/09/05 04:26:58;;;;;;;2.83;1.55;;;13.10;81.90;;;;;;5115782;28;20459;-77
2021/09/05 04:29:23;;;;;;;1.88;1.23;;;13.10;81.90;;;;;;5115595;28;20027;-77
2021/09/05 04:31:49;;;;;;;1.75;1.20;;;13.10;82.00;;;;;;5133962;28;20115;-76
2021/09/05 04:34:15;;;;;;;3.13;1.60;;;13.00;81.90;;;;;;5133818;28;20050;-75
2021/09/05 04:36:40;;;;;;;1.50;1.35;;;13.00;82.60;;;;;;5133508;28;20072;-75
2021/09/05 04:39:06;;;;;;;2.30;1.40;;;12.90;82.10;;;;;;5133894;28;20019;-76
2021/09/05 04:41:32;;;;;;;3.13;1.60;;;12.90;82.20;;;;;;5133930;28;20560;-76
2021/09/05 04:43:57;;;;;;;2.78;1.20;;;12.80;82.20;;;;;;5133853;28;20031;-74
2021/09/05 04:46:23;;;;;;;3.13;1.52;;;12.80;82.30;;;;;;5133977;28;20020;-76
2021/09/05 04:48:48;;;;;;;2.25;1.52;;;12.80;82.40;;;;;;5133909;28;20064;-76
2021/09/05 04:51:14;;;;;;;2.63;1.30;;;12.70;82.40;;;;;;5114961;28;20100;-74
2021/09/05 04:53:40;;;;;;;2.45;1.50;;;12.70;82.40;;;;;;5133742;28;20023;-76
2021/09/05 04:56:06;;;;;;;2.28;1.50;;;12.70;82.50;;;;;;5133987;28;20080;-75
2021/09/05 04:58:31;;;;;;;1.30;1.20;;;12.70;82.50;;;;;;5133779;28;20425;-74
2021/09/05 05:00:57;;;;;;;1.92;1.35;;;12.70;82.60;;;;;;5133791;28;20023;-75
2021/09/05 05:03:22;;;;;;;3.22;1.80;;;12.70;82.60;;;;;;5136284;27;20063;-75
2021/09/05 05:05:48;;;;;;;3.00;2.47;;;12.60;82.50;;;;;;5136995;27;20030;-77
2021/09/05 05:08:14;;;;;;;1.50;1.40;;;12.60;82.60;;;;;;5119305;27;20019;-75
2021/09/05 05:10:39;;;;;;;2.97;1.92;;;12.60;82.60;;;;;;5137548;27;20019;-75
2021/09/05 05:13:05;;;;;;;2.63;1.80;;;12.60;82.60;;;;;;5137441;27;20472;-75
2021/09/05 05:15:31;;;;;;;3.05;1.85;;;12.60;82.60;;;;;;5137356;27;20027;-75
2021/09/05 05:17:57;;;;;;;3.08;1.90;;;12.60;82.70;;;;;;5137528;27;20535;-74
2021/09/05 05:20:22;;;;;;;1.27;1.13;;;12.60;82.70;;;;;;5136838;27;20103;-75
2021/09/05 05:22:48;;;;;;;4.05;2.00;;;12.60;82.70;;;;;;5118905;27;20118;-75
2021/09/05 05:25:14;;;;;;;1.98;1.42;;;12.60;82.70;;;;;;5137100;27;20033;-76
2021/09/05 05:27:40;;;;;;;2.78;1.70;;;12.60;82.60;;;;;;5118713;27;20463;-75
2021/09/05 05:30:05;;;;;;;1.55;1.42;;;12.60;82.60;;;;;;5137194;27;20024;-75
2021/09/05 05:32:31;;;;;;;2.30;1.58;;;12.60;82.70;;;;;;5153139;27;20029;-76
2021/09/05 05:34:57;;;;;;;2.42;1.55;;;12.60;82.70;;;;;;5136463;27;20021;-75
2021/09/05 05:37:22;;;;;;;2.65;1.75;;;12.60;82.80;;;;;;5137013;27;20027;-75
2021/09/05 05:39:48;;;;;;;4.40;1.58;;;12.60;82.80;;;;;;5136991;27;20471;-76
2021/09/05 05:42:14;;;;;;;2.45;1.80;;;12.60;82.80;;;;;;5136898;27;20046;-75
2021/09/05 05:44:40;;;;;;;3.67;2.05;;;12.70;82.80;;;;;;5118339;27;20141;-75
2021/09/05 05:47:06;;;;;;;1.50;1.30;;;12.70;82.80;;;;;;5136886;27;20095;-75
2021/09/05 05:49:34;;;;;;;1.55;1.33;;;12.70;82.80;;;;;;5136295;27;20110;-75
2021/09/05 05:51:59;;;;;;;4.00;1.90;;;12.70;82.80;;;;;;5117647;27;20027;-75
2021/09/05 05:54:25;;;;;;;1.67;1.23;;;12.80;82.70;;;;;;5136679;27;20148;-74
2021/09/05 05:56:50;;;;;;;1.67;1.10;;;12.80;82.60;;;;;;5136602;27;20493;-74
2021/09/05 05:59:16;;;;;;;2.35;1.30;;;12.80;82.60;;;;;;5136662;27;20475;-74
2021/09/05 06:01:41;;;;;;;1.88;1.23;;;12.90;82.60;;;;;;5136462;27;20023;-73
2021/09/05 06:04:08;;;;;;;2.08;1.52;;;12.90;82.40;;;;;;5135991;27;20411;-73
2021/09/05 06:06:34;;;;;;;2.00;1.55;;;13.00;82.40;;;;;;5136511;27;20060;-73
2021/09/05 06:09:01;;;;;;;2.08;1.50;;;13.00;82.40;;;;;;5136402;27;20035;-73
2021/09/05 06:11:27;;;;;;;1.65;1.23;;;13.10;82.40;;;;;;5136468;27;20023;-74
2021/09/05 06:13:53;;;;;;;1.25;1.13;;;13.10;82.30;;;;;;5135904;27;20072;-73
2021/09/05 06:16:19;;;;;;;1.85;1.23;;;13.20;82.30;;;;;;5136286;27;20460;-74
2021/09/05 06:18:44;;;;;;;2.22;1.75;;;13.30;82.20;;;;;;5135448;27;20114;-74
2021/09/05 06:21:10;;;;;;;2.20;1.25;;;13.40;82.70;;;;;;5136471;27;20379;-74
2021/09/05 06:23:35;;;;;;;1.60;1.00;;;13.40;82.00;;;;;;5136002;27;20031;-74
2021/09/05 06:26:01;;;;;;;1.50;1.15;;;13.50;82.00;;;;;;5136150;27;20019;-74
2021/09/05 06:28:26;;;;;;;1.50;1.20;;;13.50;81.90;;;;;;5136074;27;20023;-73
2021/09/05 06:30:52;;;;;;;2.20;1.10;;;13.50;81.80;;;;;;5135885;27;20027;-74
2021/09/05 06:33:17;;;;;;;1.23;0.85;;;13.60;81.80;;;;;;5135464;27;20031;-74
2021/09/05 06:35:43;;;;;;;1.08;0.80;;;13.70;81.80;;;;;;5135841;27;20023;-75
2021/09/05 06:38:08;;;;;;;1.75;1.65;;;13.70;81.70;;;;;;5117405;27;20046;-74
2021/09/05 06:40:36;;;;;;;0.90;0.90;;;13.80;81.70;;;;;;5117302;27;20148;-73
2021/09/05 06:43:02;;;;;;;1.05;1.05;;;13.80;81.60;;;;;;5135699;27;20026;-74
2021/09/05 06:45:27;;;;;;;1.67;1.30;;;13.90;81.50;;;;;;5135725;27;20426;-74
2021/09/05 06:47:53;;;;;;;1.00;0.90;;;14.00;81.50;;;;;;5116809;27;20015;-75
2021/09/05 06:50:18;;;;;;;1.67;1.15;;;14.00;81.40;;;;;;5135507;27;20095;-74
2021/09/05 06:52:44;;;;;;;1.70;1.38;;;14.10;81.50;;;;;;5135460;27;20064;-74
2021/09/05 06:55:10;;;;;;;2.28;1.40;;;14.20;81.50;;;;;;5135599;27;20441;-74
2021/09/05 06:57:35;;;;;;;1.65;1.33;;;14.20;81.40;;;;;;5135494;27;20463;-74
2021/09/05 07:00:01;;;;;;;2.30;1.45;;;14.30;81.40;;;;;;5135438;27;20027;-75
2021/09/05 07:02:26;;;;;;;0.80;0.80;;;14.40;81.40;;;;;;5134836;27;20345;-74
2021/09/05 07:04:52;;;;;;;1.20;1.02;;;14.40;81.30;;;;;;5135227;27;20353;-74
2021/09/05 07:07:17;;;;;;;1.75;1.35;;;14.60;81.30;;;;;;5135451;27;20527;-74
2021/09/05 07:09:43;;;;;;;1.45;1.15;;;14.60;81.20;;;;;;5135279;27;20091;-74
2021/09/05 07:12:09;;;;;;;0.80;0.80;;;14.70;81.20;;;;;;5135185;27;20015;-74
2021/09/05 07:14:37;;;;;;;0.60;0.60;;;14.80;81.10;;;;;;5134962;27;20078;-73
2021/09/05 07:17:03;;;;;;;0.90;0.77;;;14.90;81.00;;;;;;5134441;27;20073;-73
2021/09/05 07:19:28;;;;;;;1.40;1.10;;;15.00;80.90;;;;;;5135002;27;20518;-74
2021/09/05 07:21:54;;;;;;;1.45;1.10;;;15.10;80.90;;;;;;5135163;27;20027;-74
2021/09/05 07:24:19;;;;;;;1.40;1.00;;;15.20;80.80;;;;;;5134554;27;20035;-74
2021/09/05 07:26:45;;;;;;;1.67;1.13;;;15.30;80.80;;;;;;5134325;27;20027;-73
2021/09/05 07:29:10;;;;;;;1.40;1.02;;;15.50;80.70;;;;;;5134860;27;20030;-75
2021/09/05 07:31:36;;;;;;;1.38;0.80;;;15.50;80.60;;;;;;5134324;27;20428;-75
2021/09/05 07:34:01;;;;;;;1.05;0.80;;;15.60;80.60;;;;;;5134854;27;20034;-74
2021/09/05 07:36:27;;;;;;;0.93;0.82;;;15.70;80.50;;;;;;5134687;27;20023;-75
2021/09/05 07:38:52;;;;;;;1.02;0.88;;;15.80;80.40;;;;;;5116214;27;20042;-74
2021/09/05 07:41:18;;;;;;;0.88;0.70;;;15.90;80.40;;;;;;5134642;27;20015;-74
2021/09/05 07:43:44;;;;;;;1.55;1.27;;;16.00;80.40;;;;;;5116110;27;20482;-74
2021/09/05 07:46:09;;;;;;;1.00;0.88;;;16.10;80.30;;;;;;5134073;27;20019;-75
2021/09/05 07:48:35;;;;;;;0.82;0.70;;;16.10;80.10;;;;;;5134474;27;20490;-76
2021/09/05 07:51:01;;;;;;;1.20;0.85;;;16.20;80.20;;;;;;5134544;27;20023;-75
2021/09/05 07:53:26;;;;;;;0.95;0.90;;;16.20;80.20;;;;;;5134446;27;20023;-74
2021/09/05 07:55:52;;;;;;;1.02;0.93;;;16.30;80.10;;;;;;5134346;27;20103;-74
2021/09/05 07:58:17;;;;;;;0.90;0.90;;;16.40;80.00;;;;;;5134296;27;20169;-75
2021/09/05 08:00:43;;;;;;;0.93;0.80;;;16.40;80.00;;;;;;5133862;27;20034;-74
2021/09/05 08:03:08;;;;;;;1.13;1.02;;;16.50;80.70;;;;;;5134158;27;20094;-75
2021/09/05 08:05:34;;;;;;;1.80;1.15;;;16.60;80.00;;;;;;5134141;27;20468;-74
2021/09/05 08:08:00;;;;;;;0.95;0.80;;;16.60;80.00;;;;;;5134339;27;20027;-74
2021/09/05 08:10:25;;;;;;;1.05;0.95;;;16.70;80.00;;;;;;5115829;28;20099;-75
2021/09/05 08:12:52;;;;;;;1.17;0.80;;;16.80;79.80;;;;;;5134311;27;20379;-74
2021/09/05 08:15:17;;;;;;;1.60;1.50;;;16.80;79.70;;;;;;5134117;27;20011;-74
2021/09/05 08:17:43;;;;;;;0.85;0.75;;;16.90;79.80;;;;;;5134053;28;20066;-74
2021/09/05 08:20:09;;;;;;;1.73;1.08;;;17.00;79.60;;;;;;5133956;28;20043;-75
2021/09/05 08:22:35;;;;;;;1.15;1.00;;;16.90;79.60;;;;;;5115726;28;20054;-76
2021/09/05 08:25:00;;;;;;;0.93;0.90;;;17.00;79.70;;;;;;5115679;28;20483;-74
2021/09/05 08:27:26;;;;;;;1.55;1.13;;;17.10;79.70;;;;;;5133603;28;20019;-74
2021/09/05 08:29:51;;;;;;;1.00;0.90;;;17.10;79.60;;;;;;5133896;28;20463;-75
2021/09/05 08:32:17;;;;;;;1.00;0.90;;;17.20;79.60;;;;;;5134062;28;20023;-75
2021/09/05 08:34:43;;;;;;;0.98;0.80;;;17.30;79.50;;;;;;5134010;28;20023;-74
2021/09/05 08:37:08;;;;;;;0.80;0.70;;;17.30;79.40;;;;;;5136273;27;20011;-74
2021/09/05 08:39:36;;;;;;;2.42;1.27;;;17.40;79.40;;;;;;5138131;27;20442;-75
2021/09/05 08:42:02;;;;;;;0.95;0.93;;;17.60;79.20;;;;;;5137669;27;20340;-74
2021/09/05 08:44:27;;;;;;;1.10;1.05;;;17.70;79.10;;;;;;5119295;27;20035;-75
2021/09/05 08:46:55;;;;;;;0.77;0.77;;;17.80;79.00;;;;;;5138009;27;20030;-74
2021/09/05 08:49:30;;;;;;;1.00;0.90;;;17.80;78.80;;;;;;5137975;27;20057;-75
2021/09/05 08:51:56;;;;;;;0.85;0.68;;;17.90;78.80;;;;;;5119560;27;20034;-74
2021/09/05 08:54:22;;;;;;;1.40;1.17;;;17.90;79.00;;;;;;5137774;27;20015;-74
2021/09/05 08:56:49;;;;;;;1.20;0.80;;;18.00;78.90;;;;;;5118834;27;20387;-74
2021/09/05 08:59:15;;;;;;;1.00;1.00;;;18.10;78.70;;;;;;5119414;27;20444;-73
2021/09/05 09:01:54;;;;;;;1.48;1.00;;;18.10;78.60;;;;;;5137761;27;20495;-74
2021/09/05 09:04:21;;;;;;;1.73;1.20;;;18.20;78.50;;;;;;5137715;27;20121;-74
2021/09/05 09:06:47;;;;;;;0.60;0.60;;;18.30;78.60;;;;;;5137554;27;20053;-74
2021/09/05 09:09:12;;;;;;;1.52;1.23;;;18.30;78.60;;;;;;5137501;27;20076;-74
2021/09/05 09:11:56;;;;;;;1.38;1.08;;;18.40;78.60;;;;;;5137146;27;20019;-75
2021/09/05 09:14:24;;;;;;;2.25;0.60;;;18.50;78.50;;;;;;5137715;27;20020;-75
2021/09/05 09:16:50;;;;;;;0.88;0.88;;;18.50;78.40;;;;;;5137357;27;20018;-74
2021/09/05 09:19:27;;;;;;;0.93;0.75;;;18.60;78.30;;;;;;5137253;27;20054;-74
2021/09/05 09:21:54;;;;;;;1.08;0.93;;;18.70;78.20;;;;;;5137336;27;20506;-74
2021/09/05 09:24:22;;;;;;;2.00;1.40;;;18.80;78.20;;;;;;5137163;27;20063;-74
2021/09/05 09:26:57;;;;;;;1.20;1.05;;;18.80;78.00;;;;;;5136864;27;20364;-74
2021/09/05 09:29:23;;;;;;;1.42;1.15;;;18.90;78.00;;;;;;5137226;27;20080;-75
2021/09/05 09:31:57;;;;;;;0.88;0.80;;;19.00;78.00;;;;;;5137265;27;20019;-75
2021/09/05 09:34:22;;;;;;;0.80;0.80;;;19.10;77.90;;;;;;5136992;27;20094;-75
2021/09/05 09:36:55;;;;;;;0.98;0.90;;;19.20;77.80;;;;;;5137139;27;20023;-74
2021/09/05 09:39:21;;;;;;;1.00;0.73;;;19.20;77.60;;;;;;5136970;27;20022;-73
2021/09/05 09:41:46;;;;;;;1.65;0.85;;;19.30;77.60;;;;;;5136589;27;20040;-74
2021/09/05 09:44:14;;;;;;;1.25;1.15;;;19.40;77.70;;;;;;5136900;27;20762;-75
2021/09/05 09:46:42;;;;;;;1.45;1.00;;;19.40;77.50;;;;;;5136895;27;20015;-76
2021/09/05 09:49:10;;;;;;;1.10;0.95;;;19.50;77.50;;;;;;5136042;27;20023;-75
2021/09/05 09:51:37;;;;;;;1.25;1.00;;;19.50;77.40;;;;;;5118370;27;20471;-75
2021/09/05 09:54:03;;;;;;;1.40;1.10;;;19.50;77.40;;;;;;5136880;27;20027;-75
2021/09/05 09:56:30;;;;;;;1.05;0.80;;;19.50;77.40;;;;;;5136387;27;20094;-74
2021/09/05 09:58:59;;;;;;;0.85;0.80;;;19.60;77.50;;;;;;5136379;27;20126;-74
2021/09/05 10:01:26;;;;;;;1.23;0.90;;;19.60;77.40;;;;;;5136358;27;20019;-75
2021/09/05 10:03:57;;;;;;;1.30;1.20;;;19.70;77.40;;;;;;5136313;27;20046;-74
2021/09/05 10:06:29;;;;;;;1.02;0.85;;;19.70;77.20;;;;;;5136629;27;20015;-73
2021/09/05 10:08:59;;;;;;;1.20;1.00;;;19.90;77.00;;;;;;5136154;27;20034;-75
2021/09/05 10:11:26;;;;;;;1.83;1.58;;;19.90;77.00;;;;;;5136288;27;20467;-73
2021/09/05 10:13:52;;;;;;;1.38;0.98;;;20.00;76.90;;;;;;5136281;27;20114;-74
2021/09/05 10:16:17;;;;;;;1.00;0.88;;;20.10;76.80;;;;;;5136476;27;20075;-74
2021/09/05 10:18:46;;;;;;;2.08;1.10;;;20.20;76.60;;;;;;5136218;27;20503;-74
2021/09/05 10:21:17;;;;;;;1.13;1.02;;;20.30;76.60;;;;;;5136123;27;20068;-74
2021/09/05 10:23:57;;;;;;;0.80;0.80;;;20.40;76.40;;;;;;5135652;27;20442;-76
2021/09/05 10:26:24;;;;;;;1.15;0.93;;;20.50;76.20;;;;;;5136134;27;20075;-74
2021/09/05 10:28:57;;;;;;;0.90;0.80;;;20.50;76.20;;;;;;5136078;27;20024;-74
2021/09/05 10:31:24;;;;;;;1.02;0.98;;;20.60;76.80;;;;;;5136118;27;20026;-74
2021/09/05 10:33:50;;;;;;;1.83;1.17;;;20.60;76.20;;;;;;5135947;27;20468;-74
2021/09/05 10:36:19;;;;;;;1.00;0.90;;;20.70;76.20;;;;;;5136020;27;20083;-74
2021/09/05 10:38:45;;;;;;;0.98;0.85;;;20.80;76.20;;;;;;5135443;27;20015;-74
2021/09/05 10:41:23;;;;;;;0.77;0.77;;;20.80;75.90;;;;;;5117142;27;20365;-74
2021/09/05 10:43:49;;;;;;;0.88;0.88;;;20.90;75.90;;;;;;5135754;27;20079;-75
2021/09/05 10:46:26;;;;;;;0.73;0.73;;;21.00;75.80;;;;;;5135673;27;20060;-74
2021/09/05 10:48:57;;;;;;;1.05;0.82;;;21.00;75.80;;;;;;5135857;27;20038;-74
2021/09/05 10:51:29;;;;;;;1.83;1.38;;;21.00;75.90;;;;;;5135500;27;20152;-73
2021/09/05 10:53:56;;;;;;;1.30;1.13;;;21.10;75.90;;;;;;5135113;27;20119;-75
2021/09/05 10:56:30;;;;;;;1.15;0.77;;;21.20;75.80;;;;;;5135727;27;20026;-75
2021/09/05 10:59:02;;;;;;;0.73;0.73;;;21.30;75.50;;;;;;5135181;27;20028;-75
2021/09/05 11:01:30;;;;;;;0.95;0.85;;;21.30;75.50;;;;;;5134710;27;20111;-75
2021/09/05 11:04:17;;;;;;;0.80;0.80;;;21.30;75.40;;;;;;5135278;27;20116;-75
2021/09/05 11:06:47;;;;;;;1.90;1.13;;;21.40;75.30;;;;;;5135358;27;20023;-74
2021/09/05 11:09:18;;;;;;;1.67;1.13;;;21.40;75.30;;;;;;5134769;27;20023;-76
2021/09/05 11:11:59;;;;;;;1.08;0.98;;;21.50;75.10;;;;;;5135241;27;20020;-74
2021/09/05 11:14:37;;;;;;;1.20;1.10;;;21.50;75.00;;;;;;5135095;27;20079;-75
2021/09/05 11:17:11;;;;;;;1.48;1.00;;;21.50;75.10;;;;;;5135035;27;20019;-75
2021/09/05 11:19:47;;;;;;;1.50;1.00;;;21.60;75.00;;;;;;5102093;28;20047;-73
2021/09/05 11:22:18;;;;;;;1.65;1.10;;;21.70;74.70;;;;;;5093702;28;20016;-74
2021/09/05 11:24:45;;;;;;;1.20;1.10;;;21.80;74.70;;;;;;5093860;28;20032;-75
2021/09/05 11:27:15;;;;;;;1.10;0.90;;;21.90;74.60;;;;;;5094018;28;20145;-75
2021/09/05 11:29:41;;;;;;;1.42;1.10;;;21.90;74.40;;;;;;5093953;28;20605;-76
2021/09/05 11:32:12;;;;;;;1.13;1.02;;;22.00;74.30;;;;;;5094234;28;20051;-74
2021/09/05 11:34:50;;;;;;;1.42;1.02;;;22.10;74.10;;;;;;5094059;28;20028;-73
2021/09/05 11:37:39;;;;;;;1.08;1.00;;;22.10;74.00;;;;;;5093678;28;20020;-74
2021/09/05 11:40:10;;;;;;;1.17;1.08;;;22.20;73.90;;;;;;5093797;28;20016;-74
2021/09/05 11:42:41;;;;;;;1.75;1.15;;;22.20;73.60;;;;;;5094033;28;20020;-74
2021/09/05 11:45:11;;;;;;;1.10;0.90;;;22.30;73.60;;;;;;5093629;28;20472;-74
2021/09/05 11:47:38;;;;;;;1.38;1.10;;;22.30;73.60;;;;;;5093548;28;20028;-75
2021/09/05 11:50:05;;;;;;;1.88;1.27;;;22.30;73.60;;;;;;5093699;28;20038;-75
2021/09/05 11:52:36;;;;;;;1.70;1.40;;;22.30;73.50;;;;;;5093212;28;20043;-76
2021/09/05 11:55:04;;;;;;;1.75;1.42;;;22.30;73.50;;;;;;5093539;28;20111;-75
2021/09/05 11:57:30;;;;;;;2.30;1.70;;;22.40;73.20;;;;;;5092118;28;20028;-75
2021/09/05 11:59:58;;;;;;;1.35;1.20;;;22.50;73.10;;;;;;5093549;28;20027;-73
2021/09/05 12:02:35;;;;;;;1.63;1.00;;;22.60;73.60;;;;;;5093342;28;20106;-74
2021/09/05 12:05:01;;;;;;;1.40;1.00;;;22.70;72.90;;;;;;5092941;28;20032;-75
2021/09/05 12:07:30;;;;;;;1.58;1.10;;;22.80;72.70;;;;;;5093444;28;20107;-74
2021/09/05 12:10:03;;;;;;;1.27;1.15;;;22.90;72.50;;;;;;5093346;28;20024;-75
2021/09/05 12:12:29;;;;;;;1.45;1.10;;;22.90;72.40;;;;;;5093113;28;20492;-75
2021/09/05 12:14:54;;;;;;;0.80;0.80;;;23.00;72.30;;;;;;5093426;28;20024;-74
2021/09/05 12:17:26;;;;;;;1.00;0.90;;;23.10;72.30;;;;;;5093190;28;20070;-75
2021/09/05 12:19:56;;;;;;;1.58;1.15;;;23.20;72.20;;;;;;5118776;28;20050;-75
2021/09/05 12:22:22;;;;;;;0.93;0.93;;;23.40;72.00;;;;;;5134136;28;20090;-75
2021/09/05 12:24:57;;;;;;;1.10;0.85;;;23.60;71.80;;;;;;5133951;28;20121;-75
2021/09/05 12:27:23;;;;;;;1.00;0.90;;;23.80;71.30;;;;;;5115597;28;20023;-74
2021/09/05 12:29:49;;;;;;;2.00;1.27;;;24.20;71.00;;;;;;5134185;28;20072;-75
2021/09/05 12:32:16;;;;;;;1.00;0.90;;;24.40;70.50;;;;;;5115800;28;20042;-75
2021/09/05 12:34:46;;;;;;;1.58;1.17;;;24.70;70.10;;;;;;5133710;28;20020;-75
2021/09/05 12:37:18;;;;;;;1.58;1.13;;;24.90;69.70;;;;;;5133994;28;20023;-75
2021/09/05 12:39:45;;;;;;;1.20;1.10;;;25.20;69.30;;;;;;5133887;28;20371;-74
2021/09/05 12:42:12;;;;;;;1.35;1.23;;;25.20;69.10;;;;;;5134003;28;20016;-75
2021/09/05 12:44:43;;;;;;;1.35;1.23;;;25.20;69.20;;;;;;5133773;28;20058;-75
2021/09/05 12:47:09;;;;;;;1.23;1.13;;;25.20;69.30;;;;;;5134010;28;20043;-75
2021/09/05 12:49:39;;;;;;;1.50;1.25;;;25.40;69.10;;;;;;5133327;28;20023;-75